createdAt,value
2018-04-27T00:01:45.903Z,93.90
2018-04-27T00:04:49.261Z,94.10
2018-04-27T00:07:52.603Z,94.40
2018-04-27T00:10:55.962Z,94.00
2018-04-27T00:13:59.294Z,93.90
2018-04-27T00:17:02.638Z,94.10
2018-04-27T00:20:05.992Z,94.40
2018-04-27T00:23:09.317Z,94.50
2018-04-27T00:26:13.422Z,94.70
2018-04-27T00:29:16.770Z,94.70
2018-04-27T00:32:20.102Z,94.90
2018-04-27T00:35:24.233Z,94.90
2018-04-27T00:38:27.564Z,94.90
2018-04-27T00:41:30.929Z,95.00
2018-04-27T00:44:34.267Z,95.00
2018-04-27T00:47:37.631Z,95.10
2018-04-27T00:50:41.754Z,95.30
2018-04-27T00:53:45.854Z,95.20
2018-04-27T00:56:49.195Z,95.20
2018-04-27T00:59:52.558Z,95.20
2018-04-27T01:02:56.649Z,95.40
2018-04-27T01:05:59.998Z,95.40
2018-04-27T01:09:03.335Z,95.60
2018-04-27T01:12:06.686Z,95.80
2018-04-27T01:15:10.017Z,95.90
2018-04-27T01:18:13.384Z,95.90
2018-04-27T01:21:16.719Z,96.30
2018-04-27T01:24:20.063Z,96.60
2018-04-27T01:27:24.183Z,96.80
2018-04-27T01:30:27.549Z,96.70
2018-04-27T01:33:30.873Z,96.80
2018-04-27T01:36:34.986Z,97.20
2018-04-27T01:39:39.083Z,96.80
2018-04-27T01:42:42.450Z,96.80
2018-04-27T01:45:45.784Z,96.80
2018-04-27T01:48:49.894Z,96.60
2018-04-27T01:51:54.002Z,96.90
2018-04-27T01:54:57.341Z,96.70
2018-04-27T01:58:00.699Z,96.70
2018-04-27T02:01:04.022Z,96.50
2018-04-27T02:04:08.133Z,96.10
2018-04-27T02:07:12.231Z,96.00
2018-04-27T02:10:15.580Z,95.90
2018-04-27T02:13:18.901Z,95.70
2018-04-27T02:16:22.193Z,95.50
2018-04-27T02:19:25.505Z,95.50
2018-04-27T02:22:28.802Z,95.50
2018-04-27T02:25:32.112Z,95.50
2018-04-27T02:28:35.405Z,95.50
2018-04-27T02:31:38.717Z,95.20
2018-04-27T02:34:42.885Z,95.50
2018-04-27T02:37:46.109Z,95.50
2018-04-27T02:40:49.406Z,95.80
2018-04-27T02:43:52.737Z,95.80
2018-04-27T02:46:56.034Z,96.20
2018-04-27T02:49:59.354Z,95.80
2018-04-27T02:53:02.645Z,95.90
2018-04-27T02:56:05.959Z,95.90
2018-04-27T02:59:09.256Z,95.60
2018-04-27T03:02:12.558Z,95.70
2018-04-27T03:05:15.876Z,95.70
2018-04-27T03:08:19.174Z,95.60
2018-04-27T03:11:22.497Z,95.60
2018-04-27T03:14:25.800Z,95.70
2018-04-27T03:17:29.134Z,95.80
2018-04-27T03:20:32.446Z,96.00
2018-04-27T03:23:35.769Z,96.10
2018-04-27T03:26:39.831Z,96.50
2018-04-27T03:29:43.164Z,96.50
2018-04-27T03:32:46.457Z,96.60
2018-04-27T03:35:49.769Z,96.80
2018-04-27T03:38:53.861Z,97.10
2018-04-27T03:41:57.157Z,97.10
2018-04-27T03:45:00.475Z,97.30
2018-04-27T03:48:04.538Z,97.80
2018-04-27T03:51:07.853Z,97.80
2018-04-27T03:54:11.149Z,97.90
2018-04-27T03:57:14.457Z,98.10
2018-04-27T04:00:35.394Z,98.30
2018-04-27T04:03:57.050Z,98.60
2018-04-27T04:07:00.368Z,98.90
2018-04-27T04:10:03.662Z,98.90
2018-04-27T04:13:06.986Z,98.90
2018-04-27T04:16:10.286Z,99.00
2018-04-27T04:19:13.596Z,99.10
2018-04-27T04:22:17.657Z,99.40
2018-04-27T04:25:20.978Z,99.40
2018-04-27T04:28:24.277Z,99.40
2018-04-27T04:31:27.605Z,99.60
2018-04-27T04:34:31.665Z,99.90
2018-04-27T04:37:34.964Z,99.90
2018-04-27T04:40:38.284Z,99.90
2018-04-27T04:43:41.577Z,99.90
2018-04-27T04:46:44.885Z,99.90
2018-04-27T04:49:48.189Z,99.90
2018-04-27T04:52:51.492Z,99.90
2018-04-27T04:55:55.578Z,99.90
2018-04-27T04:58:58.873Z,99.90
2018-04-27T05:02:02.182Z,99.90
2018-04-27T05:05:05.505Z,99.90
2018-04-27T05:08:09.609Z,99.90
2018-04-27T05:11:12.877Z,99.90
2018-04-27T05:14:16.184Z,99.90
2018-04-27T05:17:19.520Z,99.90
2018-04-27T05:20:22.026Z,99.90
2018-04-27T05:23:25.333Z,99.90
2018-04-27T05:26:28.632Z,99.90
2018-04-27T05:29:31.982Z,99.90
2018-04-27T05:32:35.293Z,99.90
2018-04-27T05:35:38.586Z,99.90
2018-04-27T05:38:41.888Z,99.90
2018-04-27T05:41:45.194Z,99.90
2018-04-27T05:44:48.501Z,99.90
2018-04-27T05:47:51.813Z,99.90
2018-04-27T05:50:55.117Z,99.90
2018-04-27T05:53:58.455Z,99.90
2018-04-27T05:57:01.746Z,99.90
2018-04-27T06:00:05.053Z,99.90
2018-04-27T06:03:08.369Z,99.90
2018-04-27T06:06:11.661Z,99.90
2018-04-27T06:09:15.005Z,99.90
2018-04-27T06:12:18.329Z,99.90
2018-04-27T06:15:21.641Z,99.90
2018-04-27T06:18:24.937Z,99.90
2018-04-27T06:21:28.244Z,99.90
2018-04-27T06:24:31.552Z,99.90
2018-04-27T06:27:34.873Z,99.90
2018-04-27T06:30:38.178Z,99.90
2018-04-27T06:33:41.512Z,99.60
2018-04-27T06:36:44.817Z,99.10
2018-04-27T06:39:48.146Z,99.60
2018-04-27T06:42:51.465Z,99.20
2018-04-27T06:45:54.806Z,99.00
2018-04-27T06:48:59.248Z,98.70
2018-04-27T06:52:02.685Z,98.70
2018-04-27T06:55:06.001Z,99.10
2018-04-27T06:58:10.071Z,98.90
2018-04-27T07:01:13.388Z,98.80
2018-04-27T07:04:16.766Z,98.20
2018-04-27T07:07:20.081Z,97.60
2018-04-27T07:10:23.424Z,96.90
2018-04-27T07:13:26.724Z,96.30
2018-04-27T07:16:30.041Z,94.90
2018-04-27T07:19:33.361Z,95.60
2018-04-27T07:22:36.671Z,94.90
2018-04-27T07:25:39.994Z,94.40
2018-04-27T07:28:43.297Z,93.00
2018-04-27T07:31:46.613Z,93.30
2018-04-27T07:34:49.953Z,93.20
2018-04-27T07:37:53.260Z,93.50
2018-04-27T07:40:56.560Z,93.30
2018-04-27T07:43:59.881Z,93.80
2018-04-27T07:47:03.185Z,92.50
2018-04-27T07:50:06.513Z,92.60
2018-04-27T07:53:09.830Z,92.90
2018-04-27T07:56:13.154Z,93.40
2018-04-27T07:59:17.221Z,93.30
2018-04-27T08:02:20.554Z,93.30
2018-04-27T08:05:23.870Z,93.40
2018-04-27T08:08:27.186Z,93.80
2018-04-27T08:11:30.509Z,94.00
2018-04-27T08:14:33.804Z,91.10
2018-04-27T08:17:37.397Z,91.00
2018-04-27T08:20:40.700Z,90.00
2018-04-27T08:23:44.018Z,88.00
2018-04-27T08:26:47.330Z,86.80
2018-04-27T08:29:50.657Z,87.90
2018-04-27T08:32:53.965Z,83.90
2018-04-27T08:35:57.393Z,85.60
2018-04-27T08:39:00.717Z,83.00
2018-04-27T08:42:04.021Z,85.60
2018-04-27T08:45:08.139Z,82.40
2018-04-27T08:48:12.221Z,81.80
2018-04-27T08:51:15.565Z,81.90
2018-04-27T08:54:18.869Z,84.10
2018-04-27T08:57:22.186Z,82.00
2018-04-27T09:00:25.521Z,84.80
2018-04-27T09:03:28.830Z,81.80
2018-04-27T09:06:32.918Z,85.20
2018-04-27T09:09:36.222Z,85.20
2018-04-27T09:12:39.537Z,84.90
2018-04-27T09:15:43.631Z,78.60
2018-04-27T09:18:46.936Z,78.50
2018-04-27T09:21:50.273Z,78.90
2018-04-27T09:24:53.609Z,76.30
2018-04-27T09:27:56.953Z,80.10
2018-04-27T09:31:00.308Z,83.50
2018-04-27T09:34:03.616Z,83.30
2018-04-27T09:37:08.448Z,80.90
2018-04-27T09:40:12.310Z,82.90
2018-04-27T09:43:15.620Z,84.20
2018-04-27T09:46:18.929Z,85.90
2018-04-27T09:49:25.932Z,83.90
2018-04-27T09:52:29.267Z,83.20
2018-04-27T09:55:32.579Z,84.30
2018-04-27T09:58:35.898Z,79.80
2018-04-27T10:01:39.224Z,78.20
2018-04-27T10:04:42.533Z,79.50
2018-04-27T10:07:46.617Z,81.50
2018-04-27T10:10:49.967Z,81.30
2018-04-27T10:13:53.304Z,79.60
2018-04-27T10:16:56.617Z,77.50
2018-04-27T10:19:59.936Z,78.00
2018-04-27T10:23:04.013Z,75.50
2018-04-27T10:26:07.364Z,75.40
2018-04-27T10:29:11.482Z,78.20
2018-04-27T10:32:14.797Z,78.20
2018-04-27T10:35:18.103Z,75.10
2018-04-27T10:38:21.418Z,74.80
2018-04-27T10:41:24.721Z,75.00
2018-04-27T10:44:28.046Z,76.50
2018-04-27T10:47:32.117Z,75.90
2018-04-27T10:50:35.444Z,75.90
2018-04-27T10:53:38.749Z,77.40
2018-04-27T10:56:42.082Z,77.90
2018-04-27T10:59:45.393Z,77.60
2018-04-27T11:02:48.724Z,76.80
2018-04-27T11:05:52.059Z,77.40
2018-04-27T11:08:55.369Z,75.80
2018-04-27T11:11:58.700Z,75.80
2018-04-27T11:15:02.024Z,77.00
2018-04-27T11:18:05.338Z,77.00
2018-04-27T11:21:08.685Z,73.00
2018-04-27T11:24:11.999Z,72.40
2018-04-27T11:27:15.321Z,69.30
2018-04-27T11:30:18.653Z,65.50
2018-04-27T11:33:22.725Z,70.50
2018-04-27T11:36:26.823Z,71.20
2018-04-27T11:39:30.133Z,70.50
2018-04-27T11:42:34.225Z,66.60
2018-04-27T11:45:37.537Z,66.60
2018-04-27T11:48:40.869Z,63.10
2018-04-27T11:51:44.292Z,69.00
2018-04-27T11:54:47.601Z,67.00
2018-04-27T11:57:50.929Z,65.10
2018-04-27T12:00:54.228Z,67.10
2018-04-27T12:03:57.541Z,69.10
2018-04-27T12:07:01.612Z,63.10
2018-04-27T12:10:04.929Z,63.00
2018-04-27T12:13:08.254Z,65.00
2018-04-27T12:16:12.343Z,60.50
2018-04-27T12:19:15.660Z,60.50
2018-04-27T12:22:19.752Z,58.30
2018-04-27T12:25:23.057Z,57.80
2018-04-27T12:28:26.374Z,61.50
2018-04-27T12:31:29.843Z,57.40
2018-04-27T12:34:33.840Z,57.00
2018-04-27T12:37:37.153Z,57.00
2018-04-27T12:40:40.489Z,57.10
2018-04-27T12:43:43.795Z,57.40
2018-04-27T12:46:47.425Z,52.20
2018-04-27T12:49:50.734Z,55.00
2018-04-27T12:52:54.085Z,55.60
2018-04-27T12:55:57.393Z,57.60
2018-04-27T12:59:01.478Z,57.90
2018-04-27T13:02:05.545Z,53.60
2018-04-27T13:05:08.876Z,53.60
2018-04-27T13:08:12.949Z,52.70
2018-04-27T13:11:16.277Z,52.60
2018-04-27T13:14:19.581Z,54.90
2018-04-27T13:17:22.893Z,52.50
2018-04-27T13:20:26.960Z,53.30
2018-04-27T13:23:31.020Z,53.40
2018-04-27T13:26:35.172Z,50.60
2018-04-27T13:29:38.418Z,50.50
2018-04-27T13:32:41.717Z,54.30
2018-04-27T13:35:45.043Z,51.40
2018-04-27T13:38:48.344Z,53.30
2018-04-27T13:41:51.669Z,54.60
2018-04-27T13:44:54.994Z,55.90
2018-04-27T13:47:58.300Z,54.30
2018-04-27T13:51:01.622Z,53.30
2018-04-27T13:54:04.925Z,54.80
2018-04-27T13:57:08.229Z,55.90
2018-04-27T14:00:11.584Z,53.40
2018-04-27T14:03:14.861Z,55.40
2018-04-27T14:06:18.161Z,51.40
2018-04-27T14:09:21.495Z,52.50
2018-04-27T14:12:24.798Z,53.10
2018-04-27T14:15:28.145Z,52.10
2018-04-27T14:18:31.456Z,54.70
2018-04-27T14:21:34.802Z,54.60
2018-04-27T14:24:38.108Z,58.50
2018-04-27T14:27:41.428Z,55.00
2018-04-27T14:30:44.749Z,55.80
2018-04-27T14:33:48.086Z,57.40
2018-04-27T14:36:51.389Z,58.50
2018-04-27T14:39:54.701Z,59.40
2018-04-27T14:42:58.036Z,59.20
2018-04-27T14:46:02.111Z,57.10
2018-04-27T14:49:05.580Z,57.10
2018-04-27T14:52:08.754Z,56.40
2018-04-27T14:55:13.670Z,59.50
2018-04-27T14:58:17.000Z,59.50
2018-04-27T15:01:20.314Z,59.50
2018-04-27T15:04:24.403Z,55.10
2018-04-27T15:07:28.473Z,56.10
2018-04-27T15:10:31.790Z,56.10
2018-04-27T15:13:35.120Z,60.00
2018-04-27T15:16:38.426Z,57.40
2018-04-27T15:19:41.778Z,57.20
2018-04-27T15:22:45.086Z,56.60
2018-04-27T15:25:49.157Z,58.70
2018-04-27T15:28:52.485Z,58.30
2018-04-27T15:31:55.791Z,58.70
2018-04-27T15:34:59.122Z,57.50
2018-04-27T15:38:02.431Z,58.10
2018-04-27T15:41:05.794Z,57.00
2018-04-27T15:44:09.869Z,55.80
2018-04-27T15:47:13.187Z,55.20
2018-04-27T15:50:16.489Z,54.40
2018-04-27T15:53:20.590Z,53.60
2018-04-27T15:56:23.894Z,53.60
2018-04-27T15:59:27.225Z,55.30
2018-04-27T16:02:30.620Z,58.20
2018-04-27T16:05:33.946Z,58.00
2018-04-27T16:08:37.283Z,56.50
2018-04-27T16:11:40.596Z,57.70
2018-04-27T16:14:44.681Z,58.20
2018-04-27T16:17:47.997Z,58.10
2018-04-27T16:20:51.333Z,58.30
2018-04-27T16:23:54.642Z,60.10
2018-04-27T16:26:57.974Z,58.70
2018-04-27T16:30:01.289Z,62.10
2018-04-27T16:33:05.369Z,74.20
2018-04-27T16:36:08.681Z,74.20
2018-04-27T16:39:12.005Z,73.30
2018-04-27T16:42:16.170Z,73.50
2018-04-27T16:45:19.489Z,75.50
2018-04-27T16:48:22.788Z,77.20
2018-04-27T16:51:26.122Z,81.00
2018-04-27T16:54:29.477Z,79.50
2018-04-27T16:57:32.782Z,79.20
2018-04-27T17:00:36.096Z,78.70
2018-04-27T17:03:40.301Z,76.70
2018-04-27T17:06:44.277Z,78.20
2018-04-27T17:09:47.608Z,78.10
2018-04-27T17:12:51.703Z,80.00
2018-04-27T17:15:55.071Z,79.30
2018-04-27T17:18:58.368Z,79.30
2018-04-27T17:22:01.682Z,76.60
2018-04-27T17:25:04.995Z,76.30
2018-04-27T17:28:08.315Z,78.00
2018-04-27T17:31:12.393Z,75.00
2018-04-27T17:34:15.734Z,74.90
2018-04-27T17:37:19.065Z,73.90
2018-04-27T17:40:22.420Z,76.80
2018-04-27T17:43:25.756Z,77.40
2018-04-27T17:46:29.112Z,77.50
2018-04-27T17:49:33.193Z,78.20
2018-04-27T17:52:36.522Z,78.20
2018-04-27T17:55:39.907Z,77.10
2018-04-27T17:58:43.153Z,77.50
2018-04-27T18:01:46.469Z,75.90
2018-04-27T18:04:49.802Z,75.40
2018-04-27T18:07:53.885Z,70.80
2018-04-27T18:10:57.225Z,70.70
2018-04-27T18:14:01.294Z,71.70
2018-04-27T18:17:04.628Z,72.30
2018-04-27T18:20:08.742Z,75.00
2018-04-27T18:23:12.073Z,74.90
2018-04-27T18:26:15.376Z,73.30
2018-04-27T18:29:18.718Z,74.70
2018-04-27T18:32:22.048Z,75.40
2018-04-27T18:35:26.128Z,79.40
2018-04-27T18:38:29.469Z,79.30
2018-04-27T18:41:32.778Z,84.10
2018-04-27T18:44:36.198Z,85.30
2018-04-27T18:47:39.485Z,85.40
2018-04-27T18:50:42.796Z,85.60
2018-04-27T18:53:46.125Z,88.50
2018-04-27T18:56:49.437Z,88.10
2018-04-27T18:59:53.545Z,90.30
2018-04-27T19:02:57.690Z,90.90
2018-04-27T19:06:04.429Z,90.90
2018-04-27T19:09:07.730Z,91.40
2018-04-27T19:12:11.050Z,92.00
2018-04-27T19:15:14.361Z,93.10
2018-04-27T19:18:21.353Z,94.00
2018-04-27T19:21:24.699Z,93.80
2018-04-27T19:24:28.010Z,93.50
2018-04-27T19:27:31.334Z,93.20
2018-04-27T19:30:34.656Z,93.70
2018-04-27T19:33:37.966Z,94.50
2018-04-27T19:36:41.341Z,95.20
2018-04-27T19:39:44.649Z,95.90
2018-04-27T19:42:48.016Z,96.40
2018-04-27T19:45:52.066Z,96.80
2018-04-27T19:48:55.400Z,96.80
2018-04-27T19:51:59.470Z,96.70
2018-04-27T19:55:02.817Z,96.70
2018-04-27T19:58:06.890Z,96.60
2018-04-27T20:01:10.217Z,96.50
2018-04-27T20:04:14.355Z,96.80
2018-04-27T20:07:17.683Z,96.80
2018-04-27T20:10:26.031Z,97.00
2018-04-27T20:13:30.916Z,97.40
2018-04-27T20:16:40.208Z,98.20
2018-04-27T20:19:47.261Z,98.30
2018-04-27T20:22:50.567Z,98.40
2018-04-27T20:25:54.517Z,98.60
2018-04-27T20:28:58.585Z,98.90
2018-04-27T20:32:01.901Z,98.90
2018-04-27T20:35:13.657Z,99.10
2018-04-27T20:38:19.917Z,99.20
2018-04-27T20:41:23.945Z,99.20
2018-04-27T20:44:27.262Z,99.60
2018-04-27T20:47:30.577Z,99.40
2018-04-27T20:50:33.895Z,99.50
2018-04-27T20:53:57.681Z,99.90
2018-04-27T20:57:01.013Z,99.90
2018-04-27T21:00:04.386Z,99.90
2018-04-27T21:03:07.693Z,99.90
2018-04-27T21:06:10.997Z,99.90
2018-04-27T21:09:14.308Z,99.90
2018-04-27T21:12:17.613Z,99.90
2018-04-27T21:15:20.933Z,99.90
2018-04-27T21:18:24.492Z,99.90
2018-04-27T21:21:27.809Z,99.90
2018-04-27T21:24:31.149Z,99.90
2018-04-27T21:27:49.370Z,99.90
2018-04-27T21:30:53.467Z,99.90
2018-04-27T21:33:58.620Z,99.90
2018-04-27T21:37:01.917Z,99.90
2018-04-27T21:40:06.017Z,99.90
2018-04-27T21:43:09.321Z,99.90
2018-04-27T21:46:12.639Z,99.90
2018-04-27T21:49:19.320Z,99.90
2018-04-27T21:52:36.844Z,99.90
2018-04-27T21:55:40.912Z,99.90
2018-04-27T21:58:44.250Z,99.90
2018-04-27T22:01:48.317Z,99.90
2018-04-27T22:04:51.646Z,99.90
2018-04-27T22:07:55.737Z,99.90
2018-04-27T22:11:22.280Z,99.90
2018-04-27T22:14:29.349Z,99.90
2018-04-27T22:17:33.429Z,99.90
2018-04-27T22:20:44.095Z,99.90
2018-04-27T22:23:47.338Z,99.90
2018-04-27T22:26:58.645Z,99.90
2018-04-27T22:30:07.362Z,99.90
2018-04-27T22:33:29.258Z,99.90
2018-04-27T22:36:40.186Z,99.90
2018-04-27T22:39:51.361Z,99.90
2018-04-27T22:42:58.304Z,99.90
2018-04-27T22:46:05.006Z,99.90
2018-04-27T22:49:09.854Z,99.90
2018-04-27T22:52:13.181Z,99.90
2018-04-27T22:55:18.108Z,99.90
2018-04-27T22:58:22.201Z,99.90
2018-04-27T23:01:25.496Z,99.90
2018-04-27T23:04:28.809Z,99.90
2018-04-27T23:07:38.245Z,99.90
2018-04-27T23:10:51.525Z,99.90
2018-04-27T23:14:15.034Z,99.90
2018-04-27T23:17:19.114Z,99.90
2018-04-27T23:20:25.933Z,99.90
2018-04-27T23:23:30.015Z,99.90
2018-04-27T23:26:33.363Z,99.90
2018-04-27T23:29:36.681Z,99.90
2018-04-27T23:32:40.674Z,99.90
2018-04-27T23:35:50.265Z,99.90
2018-04-27T23:38:53.566Z,99.90
2018-04-27T23:41:56.874Z,99.90
2018-04-27T23:45:00.173Z,99.90
2018-04-27T23:48:03.482Z,99.90
2018-04-27T23:51:06.822Z,99.90
2018-04-27T23:54:11.825Z,99.90
2018-04-27T23:57:17.508Z,99.90
